sensor_id;sensor_type;location;lat;lon;timestamp;temperature;humidity
28725;DHT22;43472;48.980;9.646;2023-07-29T00:04:53;16.20;99.90
28725;DHT22;43472;48.980;9.646;2023-07-29T00:09:55;16.20;99.90
28725;DHT22;43472;48.980;9.646;2023-07-29T00:14:57;16.10;99.90
28725;DHT22;43472;48.980;9.646;2023-07-29T00:19:59;16.10;99.90
28725;DHT22;43472;48.980;9.646;2023-07-29T00:25:01;16.10;99.90
28725;DHT22;43472;48.980;9.646;2023-07-29T00:30:03;16.10;99.90
28725;DHT22;43472;48.980;9.646;2023-07-29T00:35:08;16.00;99.90
28725;DHT22;43472;48.980;9.646;2023-07-29T00:40:15;16.00;99.90
28725;DHT22;43472;48.980;9.646;2023-07-29T00:45:20;16.10;99.90
28725;DHT22;43472;48.980;9.646;2023-07-29T00:50:22;16.00;99.90
28725;DHT22;43472;48.980;9.646;2023-07-29T00:55:27;16.00;99.90
28725;DHT22;43472;48.980;9.646;2023-07-29T01:00:30;16.00;99.90
28725;DHT22;43472;48.980;9.646;2023-07-29T01:16:39;16.10;99.90
28725;DHT22;43472;48.980;9.646;2023-07-29T01:21:43;16.10;99.90
28725;DHT22;43472;48.980;9.646;2023-07-29T01:26:45;16.10;99.90
28725;DHT22;43472;48.980;9.646;2023-07-29T01:31:49;16.10;99.90
28725;DHT22;43472;48.980;9.646;2023-07-29T01:36:57;16.00;99.90
28725;DHT22;43472;48.980;9.646;2023-07-29T01:42:03;16.00;99.90
28725;DHT22;43472;48.980;9.646;2023-07-29T01:47:06;16.00;99.90
28725;DHT22;43472;48.980;9.646;2023-07-29T01:52:08;16.00;99.90
28725;DHT22;43472;48.980;9.646;2023-07-29T01:57:09;16.20;99.90
28725;DHT22;43472;48.980;9.646;2023-07-29T02:02:11;16.10;99.90
28725;DHT22;43472;48.980;9.646;2023-07-29T02:07:13;16.10;99.90
28725;DHT22;43472;48.980;9.646;2023-07-29T02:12:15;16.00;99.90
28725;DHT22;43472;48.980;9.646;2023-07-29T02:17:17;16.00;99.90
28725;DHT22;43472;48.980;9.646;2023-07-29T02:22:20;16.00;99.90
28725;DHT22;43472;48.980;9.646;2023-07-29T02:27:22;16.20;99.90
28725;DHT22;43472;48.980;9.646;2023-07-29T02:32:26;16.20;99.90
28725;DHT22;43472;48.980;9.646;2023-07-29T02:37:28;16.20;99.90
28725;DHT22;43472;48.980;9.646;2023-07-29T02:42:30;16.20;99.90
28725;DHT22;43472;48.980;9.646;2023-07-29T02:47:33;16.30;99.90
28725;DHT22;43472;48.980;9.646;2023-07-29T02:52:35;16.10;99.90
28725;DHT22;43472;48.980;9.646;2023-07-29T02:57:37;16.00;99.90
28725;DHT22;43472;48.980;9.646;2023-07-29T03:02:39;16.10;99.90
28725;DHT22;43472;48.980;9.646;2023-07-29T03:07:41;16.00;99.90
28725;DHT22;43472;48.980;9.646;2023-07-29T03:12:44;15.90;99.90
28725;DHT22;43472;48.980;9.646;2023-07-29T03:17:46;15.80;99.90
28725;DHT22;43472;48.980;9.646;2023-07-29T03:22:48;15.80;99.90
28725;DHT22;43472;48.980;9.646;2023-07-29T03:27:50;15.90;99.90
28725;DHT22;43472;48.980;9.646;2023-07-29T03:32:53;16.20;99.90
28725;DHT22;43472;48.980;9.646;2023-07-29T03:37:58;15.80;99.90
28725;DHT22;43472;48.980;9.646;2023-07-29T03:43:00;15.70;99.90
28725;DHT22;43472;48.980;9.646;2023-07-29T03:48:02;15.60;99.90
28725;DHT22;43472;48.980;9.646;2023-07-29T03:53:05;15.60;99.90
28725;DHT22;43472;48.980;9.646;2023-07-29T03:58:08;15.60;99.90
28725;DHT22;43472;48.980;9.646;2023-07-29T04:03:11;15.90;99.90
28725;DHT22;43472;48.980;9.646;2023-07-29T04:08:15;15.50;99.90
28725;DHT22;43472;48.980;9.646;2023-07-29T04:13:17;15.60;99.90
28725;DHT22;43472;48.980;9.646;2023-07-29T04:18:19;15.80;99.90
28725;DHT22;43472;48.980;9.646;2023-07-29T04:28:23;15.90;99.90
28725;DHT22;43472;48.980;9.646;2023-07-29T04:33:25;15.90;99.90
28725;DHT22;43472;48.980;9.646;2023-07-29T04:38:31;16.00;99.90
28725;DHT22;43472;48.980;9.646;2023-07-29T04:43:34;15.90;99.90
28725;DHT22;43472;48.980;9.646;2023-07-29T04:48:36;16.00;99.90
28725;DHT22;43472;48.980;9.646;2023-07-29T04:53:38;16.10;99.90
28725;DHT22;43472;48.980;9.646;2023-07-29T04:58:40;16.20;99.90
28725;DHT22;43472;48.980;9.646;2023-07-29T05:03:42;16.00;99.90
28725;DHT22;43472;48.980;9.646;2023-07-29T05:08:44;16.00;99.90
28725;DHT22;43472;48.980;9.646;2023-07-29T05:13:46;16.10;99.90
28725;DHT22;43472;48.980;9.646;2023-07-29T05:18:48;16.20;99.90
28725;DHT22;43472;48.980;9.646;2023-07-29T05:23:50;16.20;99.90
28725;DHT22;43472;48.980;9.646;2023-07-29T05:28:52;16.20;99.90
28725;DHT22;43472;48.980;9.646;2023-07-29T05:33:54;17.00;99.90
28725;DHT22;43472;48.980;9.646;2023-07-29T05:38:58;17.10;99.90
28725;DHT22;43472;48.980;9.646;2023-07-29T05:44:01;16.90;99.90
28725;DHT22;43472;48.980;9.646;2023-07-29T05:49:03;16.80;99.90
28725;DHT22;43472;48.980;9.646;2023-07-29T05:54:05;16.90;99.90
28725;DHT22;43472;48.980;9.646;2023-07-29T05:59:07;17.00;99.90
28725;DHT22;43472;48.980;9.646;2023-07-29T06:04:09;17.00;99.90
28725;DHT22;43472;48.980;9.646;2023-07-29T06:09:11;17.10;99.90
28725;DHT22;43472;48.980;9.646;2023-07-29T06:14:13;17.10;99.90
28725;DHT22;43472;48.980;9.646;2023-07-29T06:19:15;17.20;99.90
28725;DHT22;43472;48.980;9.646;2023-07-29T06:24:18;17.20;99.90
28725;DHT22;43472;48.980;9.646;2023-07-29T06:29:20;17.70;99.90
28725;DHT22;43472;48.980;9.646;2023-07-29T06:34:22;17.70;99.90
28725;DHT22;43472;48.980;9.646;2023-07-29T06:39:27;18.00;99.90
28725;DHT22;43472;48.980;9.646;2023-07-29T06:44:31;18.00;99.90
28725;DHT22;43472;48.980;9.646;2023-07-29T06:49:34;18.10;99.90
28725;DHT22;43472;48.980;9.646;2023-07-29T06:54:36;18.40;99.90
28725;DHT22;43472;48.980;9.646;2023-07-29T06:59:38;18.50;99.90
28725;DHT22;43472;48.980;9.646;2023-07-29T07:04:40;18.60;99.90
28725;DHT22;43472;48.980;9.646;2023-07-29T07:09:42;18.80;99.90
28725;DHT22;43472;48.980;9.646;2023-07-29T07:14:44;18.80;99.90
28725;DHT22;43472;48.980;9.646;2023-07-29T07:19:46;18.90;99.90
28725;DHT22;43472;48.980;9.646;2023-07-29T07:24:48;18.80;99.90
28725;DHT22;43472;48.980;9.646;2023-07-29T07:29:51;18.80;99.90
28725;DHT22;43472;48.980;9.646;2023-07-29T07:34:52;18.80;99.90
28725;DHT22;43472;48.980;9.646;2023-07-29T07:39:54;18.80;99.90
28725;DHT22;43472;48.980;9.646;2023-07-29T07:44:56;18.60;99.90
28725;DHT22;43472;48.980;9.646;2023-07-29T07:49:59;18.50;99.90
28725;DHT22;43472;48.980;9.646;2023-07-29T07:55:03;18.50;99.90
28725;DHT22;43472;48.980;9.646;2023-07-29T08:00:06;18.50;99.90
28725;DHT22;43472;48.980;9.646;2023-07-29T08:05:08;18.50;99.90
28725;DHT22;43472;48.980;9.646;2023-07-29T08:10:10;18.70;99.90
28725;DHT22;43472;48.980;9.646;2023-07-29T08:15:12;18.50;99.90
28725;DHT22;43472;48.980;9.646;2023-07-29T08:20:14;18.60;99.90
28725;DHT22;43472;48.980;9.646;2023-07-29T08:25:16;18.60;99.90
28725;DHT22;43472;48.980;9.646;2023-07-29T08:35:24;19.00;99.90
28725;DHT22;43472;48.980;9.646;2023-07-29T08:40:29;19.10;99.90
28725;DHT22;43472;48.980;9.646;2023-07-29T08:45:35;19.10;99.90
28725;DHT22;43472;48.980;9.646;2023-07-29T08:50:42;19.20;99.90
28725;DHT22;43472;48.980;9.646;2023-07-29T08:55:45;20.10;99.90
28725;DHT22;43472;48.980;9.646;2023-07-29T09:00:49;20.10;99.90
28725;DHT22;43472;48.980;9.646;2023-07-29T09:05:53;19.70;99.90
28725;DHT22;43472;48.980;9.646;2023-07-29T09:10:56;19.70;99.90
28725;DHT22;43472;48.980;9.646;2023-07-29T09:15:59;19.90;99.90
28725;DHT22;43472;48.980;9.646;2023-07-29T09:21:01;20.50;99.90
28725;DHT22;43472;48.980;9.646;2023-07-29T09:26:03;20.50;99.90
28725;DHT22;43472;48.980;9.646;2023-07-29T09:31:07;20.50;99.90
28725;DHT22;43472;48.980;9.646;2023-07-29T09:36:21;20.50;99.90
28725;DHT22;43472;48.980;9.646;2023-07-29T09:41:28;20.80;99.90
28725;DHT22;43472;48.980;9.646;2023-07-29T09:46:36;20.80;99.90
28725;DHT22;43472;48.980;9.646;2023-07-29T09:51:39;21.30;99.90
28725;DHT22;43472;48.980;9.646;2023-07-29T09:56:42;21.90;99.90
28725;DHT22;43472;48.980;9.646;2023-07-29T10:01:46;21.90;99.90
28725;DHT22;43472;48.980;9.646;2023-07-29T10:06:48;21.90;99.90
28725;DHT22;43472;48.980;9.646;2023-07-29T10:11:51;21.90;99.90
28725;DHT22;43472;48.980;9.646;2023-07-29T10:16:55;20.90;99.90
28725;DHT22;43472;48.980;9.646;2023-07-29T10:21:59;18.30;99.90
28725;DHT22;43472;48.980;9.646;2023-07-29T10:27:06;18.70;99.90
28725;DHT22;43472;48.980;9.646;2023-07-29T10:32:10;17.20;99.90
28725;DHT22;43472;48.980;9.646;2023-07-29T10:37:12;17.20;99.90
28725;DHT22;43472;48.980;9.646;2023-07-29T10:47:28;17.90;99.90
28725;DHT22;43472;48.980;9.646;2023-07-29T10:57:39;18.30;99.90
28725;DHT22;43472;48.980;9.646;2023-07-29T11:02:57;18.30;99.90
28725;DHT22;43472;48.980;9.646;2023-07-29T11:08:36;19.00;99.90
28725;DHT22;43472;48.980;9.646;2023-07-29T11:13:41;19.90;99.90
28725;DHT22;43472;48.980;9.646;2023-07-29T11:18:44;20.50;99.90
28725;DHT22;43472;48.980;9.646;2023-07-29T11:23:48;21.00;99.90
28725;DHT22;43472;48.980;9.646;2023-07-29T11:33:54;21.10;99.90
28725;DHT22;43472;48.980;9.646;2023-07-29T11:38:55;21.30;99.90
28725;DHT22;43472;48.980;9.646;2023-07-29T11:43:58;21.30;99.90
28725;DHT22;43472;48.980;9.646;2023-07-29T11:49:00;21.30;99.90
28725;DHT22;43472;48.980;9.646;2023-07-29T11:54:03;21.30;99.90
28725;DHT22;43472;48.980;9.646;2023-07-29T11:59:06;21.30;99.90
28725;DHT22;43472;48.980;9.646;2023-07-29T12:04:10;22.50;99.90
28725;DHT22;43472;48.980;9.646;2023-07-29T12:14:17;22.10;99.90
28725;DHT22;43472;48.980;9.646;2023-07-29T12:19:19;22.20;99.90
28725;DHT22;43472;48.980;9.646;2023-07-29T12:24:22;22.30;99.90
28725;DHT22;43472;48.980;9.646;2023-07-29T12:29:25;22.30;99.90
28725;DHT22;43472;48.980;9.646;2023-07-29T12:34:29;22.50;99.90
28725;DHT22;43472;48.980;9.646;2023-07-29T12:39:34;22.40;99.90
28725;DHT22;43472;48.980;9.646;2023-07-29T12:44:36;22.40;99.90
28725;DHT22;43472;48.980;9.646;2023-07-29T12:49:40;22.80;99.90
28725;DHT22;43472;48.980;9.646;2023-07-29T12:54:42;22.50;99.90
28725;DHT22;43472;48.980;9.646;2023-07-29T12:59:46;22.40;99.90
28725;DHT22;43472;48.980;9.646;2023-07-29T13:04:48;22.80;99.90
28725;DHT22;43472;48.980;9.646;2023-07-29T13:14:53;22.80;99.90
28725;DHT22;43472;48.980;9.646;2023-07-29T13:19:54;23.30;99.90
28725;DHT22;43472;48.980;9.646;2023-07-29T13:24:57;23.60;99.90
28725;DHT22;43472;48.980;9.646;2023-07-29T13:29:59;23.20;99.90
28725;DHT22;43472;48.980;9.646;2023-07-29T13:35:01;23.70;99.90
28725;DHT22;43472;48.980;9.646;2023-07-29T13:45:07;24.30;99.90
28725;DHT22;43472;48.980;9.646;2023-07-29T13:50:10;23.90;99.90
28725;DHT22;43472;48.980;9.646;2023-07-29T13:55:13;23.20;99.90
28725;DHT22;43472;48.980;9.646;2023-07-29T14:00:17;23.00;99.90
28725;DHT22;43472;48.980;9.646;2023-07-29T14:05:19;23.10;99.90
28725;DHT22;43472;48.980;9.646;2023-07-29T14:10:20;22.70;99.90
28725;DHT22;43472;48.980;9.646;2023-07-29T14:15:24;22.80;99.90
28725;DHT22;43472;48.980;9.646;2023-07-29T14:20:26;22.90;99.90
28725;DHT22;43472;48.980;9.646;2023-07-29T14:25:28;22.70;99.90
28725;DHT22;43472;48.980;9.646;2023-07-29T14:30:30;23.20;99.90
28725;DHT22;43472;48.980;9.646;2023-07-29T14:35:32;23.70;99.90
28725;DHT22;43472;48.980;9.646;2023-07-29T14:40:34;24.20;99.90
28725;DHT22;43472;48.980;9.646;2023-07-29T14:45:35;23.80;99.90
28725;DHT22;43472;48.980;9.646;2023-07-29T14:50:38;23.60;99.90
28725;DHT22;43472;48.980;9.646;2023-07-29T14:55:40;23.40;99.90
28725;DHT22;43472;48.980;9.646;2023-07-29T15:00:42;23.30;99.90
28725;DHT22;43472;48.980;9.646;2023-07-29T15:05:43;23.10;99.90
28725;DHT22;43472;48.980;9.646;2023-07-29T15:10:47;23.80;99.90
28725;DHT22;43472;48.980;9.646;2023-07-29T15:15:49;24.00;99.90
28725;DHT22;43472;48.980;9.646;2023-07-29T15:20:52;23.70;99.90
28725;DHT22;43472;48.980;9.646;2023-07-29T15:25:54;24.10;99.90
28725;DHT22;43472;48.980;9.646;2023-07-29T15:30:58;24.30;99.90
28725;DHT22;43472;48.980;9.646;2023-07-29T15:36:01;24.40;99.90
28725;DHT22;43472;48.980;9.646;2023-07-29T15:41:03;24.20;99.90
28725;DHT22;43472;48.980;9.646;2023-07-29T15:46:07;24.30;99.90
28725;DHT22;43472;48.980;9.646;2023-07-29T15:51:10;24.60;99.90
28725;DHT22;43472;48.980;9.646;2023-07-29T15:56:12;24.60;99.90
28725;DHT22;43472;48.980;9.646;2023-07-29T16:01:14;24.30;99.90
28725;DHT22;43472;48.980;9.646;2023-07-29T16:06:17;24.30;99.90
28725;DHT22;43472;48.980;9.646;2023-07-29T16:11:19;24.00;99.90
28725;DHT22;43472;48.980;9.646;2023-07-29T16:16:22;24.20;99.90
28725;DHT22;43472;48.980;9.646;2023-07-29T16:21:24;23.30;99.90
28725;DHT22;43472;48.980;9.646;2023-07-29T16:26:26;23.20;99.90
28725;DHT22;43472;48.980;9.646;2023-07-29T16:31:28;22.80;99.90
28725;DHT22;43472;48.980;9.646;2023-07-29T16:36:30;23.20;99.90
28725;DHT22;43472;48.980;9.646;2023-07-29T16:41:32;23.50;99.90
28725;DHT22;43472;48.980;9.646;2023-07-29T16:46:54;23.50;99.90
28725;DHT22;43472;48.980;9.646;2023-07-29T16:51:56;23.50;99.90
28725;DHT22;43472;48.980;9.646;2023-07-29T16:56:58;23.00;99.90
28725;DHT22;43472;48.980;9.646;2023-07-29T17:02:00;23.40;99.90
28725;DHT22;43472;48.980;9.646;2023-07-29T17:07:04;23.10;99.90
28725;DHT22;43472;48.980;9.646;2023-07-29T17:12:06;23.10;99.90
28725;DHT22;43472;48.980;9.646;2023-07-29T17:17:08;22.50;99.90
28725;DHT22;43472;48.980;9.646;2023-07-29T17:22:10;22.20;99.90
28725;DHT22;43472;48.980;9.646;2023-07-29T17:27:13;21.40;99.90
28725;DHT22;43472;48.980;9.646;2023-07-29T17:32:15;21.10;99.90
28725;DHT22;43472;48.980;9.646;2023-07-29T17:37:17;20.70;99.90
28725;DHT22;43472;48.980;9.646;2023-07-29T17:42:19;20.70;99.90
28725;DHT22;43472;48.980;9.646;2023-07-29T17:47:21;20.70;99.90
28725;DHT22;43472;48.980;9.646;2023-07-29T17:52:23;20.50;99.90
28725;DHT22;43472;48.980;9.646;2023-07-29T17:57:25;20.40;99.90
28725;DHT22;43472;48.980;9.646;2023-07-29T18:02:28;20.50;99.90
28725;DHT22;43472;48.980;9.646;2023-07-29T18:07:30;20.50;99.90
28725;DHT22;43472;48.980;9.646;2023-07-29T18:12:33;20.70;99.90
28725;DHT22;43472;48.980;9.646;2023-07-29T18:17:37;20.80;99.90
28725;DHT22;43472;48.980;9.646;2023-07-29T18:22:39;20.90;99.90
28725;DHT22;43472;48.980;9.646;2023-07-29T18:32:44;20.80;99.90
28725;DHT22;43472;48.980;9.646;2023-07-29T18:37:47;20.80;99.90
28725;DHT22;43472;48.980;9.646;2023-07-29T18:42:50;20.70;99.90
28725;DHT22;43472;48.980;9.646;2023-07-29T18:47:53;20.60;99.90
28725;DHT22;43472;48.980;9.646;2023-07-29T18:52:56;20.50;99.90
28725;DHT22;43472;48.980;9.646;2023-07-29T18:58:01;20.30;99.90
28725;DHT22;43472;48.980;9.646;2023-07-29T19:03:04;20.30;99.90
28725;DHT22;43472;48.980;9.646;2023-07-29T19:08:07;20.20;99.90
28725;DHT22;43472;48.980;9.646;2023-07-29T19:13:11;20.10;99.90
28725;DHT22;43472;48.980;9.646;2023-07-29T19:18:13;20.00;99.90
28725;DHT22;43472;48.980;9.646;2023-07-29T19:23:14;19.90;99.90
28725;DHT22;43472;48.980;9.646;2023-07-29T19:28:17;19.80;99.90
28725;DHT22;43472;48.980;9.646;2023-07-29T19:33:20;19.60;99.90
28725;DHT22;43472;48.980;9.646;2023-07-29T19:38:22;19.50;99.90
28725;DHT22;43472;48.980;9.646;2023-07-29T19:43:24;19.50;99.90
28725;DHT22;43472;48.980;9.646;2023-07-29T19:48:26;19.50;99.90
28725;DHT22;43472;48.980;9.646;2023-07-29T19:53:28;19.60;99.90
28725;DHT22;43472;48.980;9.646;2023-07-29T19:58:33;19.50;99.90
28725;DHT22;43472;48.980;9.646;2023-07-29T20:03:35;19.40;99.90
28725;DHT22;43472;48.980;9.646;2023-07-29T20:08:37;19.40;99.90
28725;DHT22;43472;48.980;9.646;2023-07-29T20:13:39;19.50;99.90
28725;DHT22;43472;48.980;9.646;2023-07-29T20:18:41;19.40;99.90
28725;DHT22;43472;48.980;9.646;2023-07-29T20:23:44;19.10;99.90
28725;DHT22;43472;48.980;9.646;2023-07-29T20:28:47;19.20;99.90
28725;DHT22;43472;48.980;9.646;2023-07-29T20:33:50;18.90;99.90
28725;DHT22;43472;48.980;9.646;2023-07-29T20:38:52;18.90;99.90
28725;DHT22;43472;48.980;9.646;2023-07-29T20:43:54;18.80;99.90
28725;DHT22;43472;48.980;9.646;2023-07-29T20:48:56;18.80;99.90
28725;DHT22;43472;48.980;9.646;2023-07-29T20:53:58;18.80;99.90
28725;DHT22;43472;48.980;9.646;2023-07-29T20:59:00;18.90;99.90
28725;DHT22;43472;48.980;9.646;2023-07-29T21:04:03;18.70;99.90
28725;DHT22;43472;48.980;9.646;2023-07-29T21:09:05;18.60;99.90
28725;DHT22;43472;48.980;9.646;2023-07-29T21:14:07;18.20;99.90
28725;DHT22;43472;48.980;9.646;2023-07-29T21:19:09;18.20;99.90
28725;DHT22;43472;48.980;9.646;2023-07-29T21:24:12;18.20;99.90
28725;DHT22;43472;48.980;9.646;2023-07-29T21:29:14;18.20;99.90
28725;DHT22;43472;48.980;9.646;2023-07-29T21:34:16;18.10;99.90
28725;DHT22;43472;48.980;9.646;2023-07-29T21:39:18;18.00;99.90
28725;DHT22;43472;48.980;9.646;2023-07-29T21:44:22;17.80;99.90
28725;DHT22;43472;48.980;9.646;2023-07-29T21:49:23;17.80;99.90
28725;DHT22;43472;48.980;9.646;2023-07-29T21:54:25;17.90;99.90
28725;DHT22;43472;48.980;9.646;2023-07-29T21:59:28;18.00;99.90
28725;DHT22;43472;48.980;9.646;2023-07-29T22:04:29;17.90;99.90
28725;DHT22;43472;48.980;9.646;2023-07-29T22:09:31;17.90;99.90
28725;DHT22;43472;48.980;9.646;2023-07-29T22:14:34;18.10;99.90
28725;DHT22;43472;48.980;9.646;2023-07-29T22:19:36;18.00;99.90
28725;DHT22;43472;48.980;9.646;2023-07-29T22:24:38;18.00;99.90
28725;DHT22;43472;48.980;9.646;2023-07-29T22:29:40;17.90;99.90
28725;DHT22;43472;48.980;9.646;2023-07-29T22:34:42;17.80;99.90
28725;DHT22;43472;48.980;9.646;2023-07-29T22:39:44;18.00;99.90
28725;DHT22;43472;48.980;9.646;2023-07-29T22:44:49;18.10;99.90
28725;DHT22;43472;48.980;9.646;2023-07-29T22:49:51;18.00;99.90
28725;DHT22;43472;48.980;9.646;2023-07-29T22:54:53;17.80;99.90
28725;DHT22;43472;48.980;9.646;2023-07-29T22:59:55;17.80;99.90
28725;DHT22;43472;48.980;9.646;2023-07-29T23:04:57;17.60;99.90
28725;DHT22;43472;48.980;9.646;2023-07-29T23:09:59;17.70;99.90
28725;DHT22;43472;48.980;9.646;2023-07-29T23:15:01;17.70;99.90
28725;DHT22;43472;48.980;9.646;2023-07-29T23:20:03;17.90;99.90
28725;DHT22;43472;48.980;9.646;2023-07-29T23:25:05;17.90;99.90
28725;DHT22;43472;48.980;9.646;2023-07-29T23:30:08;17.80;99.90
28725;DHT22;43472;48.980;9.646;2023-07-29T23:35:11;17.80;99.90
28725;DHT22;43472;48.980;9.646;2023-07-29T23:40:13;18.00;99.90
28725;DHT22;43472;48.980;9.646;2023-07-29T23:45:15;18.50;99.90
28725;DHT22;43472;48.980;9.646;2023-07-29T23:50:17;18.10;99.90
28725;DHT22;43472;48.980;9.646;2023-07-29T23:55:19;18.10;99.90
